• Join FlightAware (Why Join?)
  • Login
  • US Flag 
Trick or treat! (Boo!!) 
07:31AM EDT


 

Airport Tracker/Info


-or-


 

Live Flight TrackerFlight Track Log ✈ TYR848 ✈ 26-Apr-2014 ✈ LATI / TIA - LOWW / VIE

Flight Track Log - Related Links

Times and Time Zones

All times are in EDT time to prevent confusion due to time zone crossing. See the TYR848 flight status page for this flight to view local times or setup timezone preferences in your user account.

Time Position Orientation Groundspeed Altitude Reporting Facility
EDT Latitude Longitude Course Direction KTS MPH feet Rate Location/Type
09:41AM 41.7472 19.5811 343° North  Level Estimated
09:42AM 41.8302 19.5460 343° North  Level Estimated
09:43AM 41.9133 19.5108 343° North  Level Estimated
09:44AM 41.9964 19.4755 342° North  Level Estimated
09:45AM 42.0794 19.4401 342° North  Level Estimated
09:46AM 42.1624 19.4047 342° North  Level Estimated
09:47AM 42.2455 19.3691 342° North  Level Estimated
09:48AM 42.3285 19.3335 342° North  Level Estimated
09:49AM 42.4115 19.2977 342° North  Level Estimated
09:50AM 42.4945 19.2619 342° North  Level Estimated
09:51AM 42.5775 19.2260 342° North  Level Estimated
09:52AM 42.6604 19.1899 342° North  Level Estimated
09:53AM 42.7434 19.1538 342° North  Level Estimated
09:54AM 42.8263 19.1176 342° North  Level Estimated
09:55AM 42.9093 19.0812 342° North  Level Estimated
09:56AM 42.9922 19.0448 342° North  Level Estimated
09:57AM 43.0751 19.0083 342° North  Level Estimated
09:58AM 43.1580 18.9717 342° North  Level Estimated
09:59AM 43.2409 18.9350 342° North  Level Estimated
10:00AM 43.3238 18.8982 342° North  Level Estimated
10:01AM 43.4067 18.8612 342° North  Level Estimated
10:02AM 43.4895 18.8242 342° North  Level Estimated
10:03AM 43.5723 18.7871 342° North  Level Estimated
10:04AM 43.6552 18.7499 342° North  Level Estimated
10:05AM 43.7380 18.7126 342° North  Level Estimated
10:06AM 43.8208 18.6751 342° North  Level Estimated
10:07AM 43.9036 18.6376 342° North  Level Estimated
10:08AM 43.9864 18.6000 342° North  Level Estimated
10:09AM 44.0691 18.5622 342° North  Level Estimated
10:10AM 44.1519 18.5244 342° North  Level Estimated
10:11AM 44.2346 18.4864 342° North  Level Estimated
10:12AM 44.3174 18.4484 342° North  Level Estimated
10:13AM 44.4001 18.4102 342° North  Level Estimated
10:14AM 44.4828 18.3719 342° North  Level Estimated
10:15AM 44.5655 18.3335 342° North  Level Estimated
10:16AM 44.6482 18.2950 342° North  Level Estimated
10:17AM 44.7308 18.2564 342° North  Level Estimated
10:18AM 44.8135 18.2177 342° North  Level Estimated
10:19AM 44.8961 18.1789 342° North  Level Estimated
10:20AM 44.9787 18.1400 342° North  Level Estimated
10:21AM 45.0614 18.1009 342° North  Level Estimated
10:22AM 45.1440 18.0618 342° North  Level Estimated
10:23AM 45.2266 18.0225 341° North  Level Estimated
10:24AM 45.3091 17.9831 341° North  Level Estimated
10:25AM 45.3917 17.9436 341° North  Level Estimated
10:26AM 45.4742 17.9040 341° North  Level Estimated
10:27AM 45.5568 17.8642 341° North  Level Estimated
10:28AM 45.6393 17.8244 341° North  Level Estimated
10:29AM 45.7218 17.7844 341° North  Level Estimated
10:30AM 45.8043 17.7443 341° North  Level Estimated
10:31AM 45.8867 17.7041 341° North  Level Estimated
10:32AM 45.9692 17.6638 341° North  Level Estimated
10:33AM 46.0517 17.6233 341° North  Level Estimated
10:34AM 46.1341 17.5828 341° North  Level Estimated
10:35AM 46.2165 17.5421 341° North  Level Estimated
10:36AM 46.2989 17.5012 341° North  Level Estimated
10:37AM 46.3813 17.4603 341° North  Level Estimated
10:38AM 46.4637 17.4193 341° North  Level Estimated
10:39AM 46.5461 17.3781 341° North  Level Estimated
10:40AM 46.6284 17.3368 341° North  Level Estimated
10:41AM 46.7107 17.2953 341° North  Level Estimated
10:42AM 46.7930 17.2538 341° North  Level Estimated
10:43AM 46.8754 17.2121 341° North  Level Estimated
10:44AM 46.9576 17.1702 341° North  Level Estimated
10:45AM 47.0399 17.1283 341° North  Level Estimated
10:46AM 47.1222 17.0862 341° North  Level Estimated
10:47AM 47.2044 17.0440 341° North  Level Estimated
10:48AM 47.2866 17.0017 341° North  Level Estimated
10:49AM 47.3688 16.9592 341° North  Level Estimated
10:50AM 47.4510 16.9166 341° North  Level Estimated
10:51AM 47.5332 16.8739 341° North  Level Estimated
10:52AM 47.6154 16.8310 341° North  Level Estimated
10:53AM 47.6975 16.7880 341° North  Level Estimated
10:54AM 47.7796 16.7449 341° North  Level Estimated
10:55AM 47.8618 16.7016 341° North  Level Estimated
10:56AM 47.9439 16.6582 340° North  Level Estimated
10:57AM 48.0259 16.6146 340° North  Level Estimated
10:58AM 48.1080 16.5709 340° North  Level Estimated
10:59AM 48.1103 16.5697 340° North  Level Estimated
11:00AM 48.1103 16.5697 North  Level Estimated
11:01AM 48.1103 16.5697 North  Level Estimated